createdAt,value
2018-11-23T00:00:47.815Z,102093.43
2018-11-23T00:05:50.949Z,102101.67
2018-11-23T00:10:54.098Z,102103.45
2018-11-23T00:15:57.305Z,102101.34
2018-11-23T00:21:00.674Z,102094.28
2018-11-23T00:26:04.215Z,102090.84
2018-11-23T00:31:07.520Z,102091.08
2018-11-23T00:36:10.688Z,102091.86
2018-11-23T00:41:13.825Z,102098.67
2018-11-23T00:46:16.981Z,102090.38
2018-11-23T00:51:20.080Z,102096.73
2018-11-23T00:56:23.216Z,102085.17
2018-11-23T01:01:26.450Z,102087.67
2018-11-23T01:06:29.623Z,102088.27
2018-11-23T01:11:32.779Z,102080.11
2018-11-23T01:16:35.952Z,102073.77
2018-11-23T01:21:39.197Z,102076.40
2018-11-23T01:26:42.452Z,102074.80
2018-11-23T01:31:45.630Z,102074.09
2018-11-23T01:36:48.802Z,102068.66
2018-11-23T01:41:51.917Z,102059.95
2018-11-23T01:46:55.057Z,102056.40
2018-11-23T01:51:58.398Z,102053.63
2018-11-23T01:57:01.594Z,102050.89
2018-11-23T02:02:05.271Z,102049.41
2018-11-23T02:07:08.502Z,102046.87
2018-11-23T02:12:11.863Z,102041.84
2018-11-23T02:17:15.066Z,102038.64
2018-11-23T02:22:18.407Z,102029.80
2018-11-23T02:27:21.560Z,102035.31
2018-11-23T02:32:24.912Z,102021.05
2018-11-23T02:37:28.069Z,102025.69
2018-11-23T02:42:31.263Z,102034.91
2018-11-23T02:47:34.362Z,102027.56
2018-11-23T02:52:37.539Z,102028.20
2018-11-23T02:57:40.867Z,102021.61
2018-11-23T03:02:44.071Z,102016.23
2018-11-23T03:07:47.317Z,102012.78
2018-11-23T03:12:50.538Z,102011.20
2018-11-23T03:17:53.673Z,102016.47
2018-11-23T03:22:56.866Z,102011.92
2018-11-23T03:28:00.017Z,102009.52
2018-11-23T03:33:03.494Z,102009.52
2018-11-23T03:38:06.697Z,102002.86
2018-11-23T03:43:09.946Z,102004.48
2018-11-23T03:48:13.157Z,101993.87
2018-11-23T03:53:16.297Z,101994.17
2018-11-23T03:58:19.485Z,101997.20
2018-11-23T04:03:22.628Z,101993.87
2018-11-23T04:08:25.810Z,101991.46
2018-11-23T04:13:29.618Z,101991.36
2018-11-23T04:18:32.969Z,101995.25
2018-11-23T04:23:36.143Z,101997.83
2018-11-23T04:28:39.294Z,101993.14
2018-11-23T04:33:42.513Z,101990.05
2018-11-23T04:38:45.677Z,101990.44
2018-11-23T04:43:48.976Z,101987.41
2018-11-23T04:48:52.183Z,101992.55
2018-11-23T04:53:56.948Z,101993.94
2018-11-23T04:59:00.185Z,101988.27
2018-11-23T05:04:03.791Z,101989.68
2018-11-23T05:09:08.555Z,101984.02
2018-11-23T05:14:11.734Z,101989.22
2018-11-23T05:19:15.005Z,101991.69
2018-11-23T05:24:18.188Z,101985.33
2018-11-23T05:29:21.386Z,101993.77
2018-11-23T05:34:25.032Z,101990.38
2018-11-23T05:39:28.275Z,101988.89
2018-11-23T05:44:31.451Z,101986.72
2018-11-23T05:49:34.592Z,101982.00
2018-11-23T05:54:37.825Z,101982.30
2018-11-23T05:59:43.529Z,101979.27
2018-11-23T06:04:47.114Z,101982.76
2018-11-23T06:09:54.697Z,101982.16
2018-11-23T06:15:03.568Z,101978.96
2018-11-23T06:20:13.289Z,101972.08
2018-11-23T06:25:34.589Z,101981.36
2018-11-23T06:30:37.819Z,101982.37
2018-11-23T06:35:40.999Z,101983.77
2018-11-23T06:40:44.204Z,101982.99
2018-11-23T06:45:47.426Z,101979.50
2018-11-23T06:50:50.839Z,101983.22
2018-11-23T06:55:54.119Z,101987.64
2018-11-23T07:00:57.375Z,101987.79
2018-11-23T07:06:00.646Z,101991.88
2018-11-23T07:11:04.267Z,101985.44
2018-11-23T07:16:08.225Z,101986.52
2018-11-23T07:21:11.425Z,101984.80
2018-11-23T07:26:14.742Z,101987.13
2018-11-23T07:31:17.981Z,101982.54
2018-11-23T07:36:21.283Z,101981.57
2018-11-23T07:41:35.717Z,101977.66
2018-11-23T07:46:38.910Z,101972.20
2018-11-23T07:51:42.467Z,101980.34
2018-11-23T07:56:46.529Z,101979.02
2018-11-23T08:01:49.836Z,101974.53
2018-11-23T08:06:53.295Z,101980.48
2018-11-23T08:11:56.641Z,101974.28
2018-11-23T08:17:00.265Z,101963.02
2018-11-23T08:22:03.490Z,101971.11
2018-11-23T08:27:06.678Z,101962.48
2018-11-23T08:32:10.277Z,101960.47
2018-11-23T08:37:13.506Z,101968.31
2018-11-23T08:42:16.943Z,101961.78
2018-11-23T08:47:20.406Z,101965.55
2018-11-23T08:52:23.696Z,101962.41
2018-11-23T08:57:26.970Z,101963.80
2018-11-23T09:02:30.155Z,101965.90
2018-11-23T09:07:33.437Z,101963.28
2018-11-23T09:12:37.102Z,101956.13
2018-11-23T09:17:40.313Z,101961.42
2018-11-23T09:22:43.474Z,101965.87
2018-11-23T09:27:47.628Z,101961.36
2018-11-23T09:32:51.491Z,101953.30
2018-11-23T09:37:54.869Z,101958.39
2018-11-23T09:42:58.096Z,101954.17
2018-11-23T09:48:01.367Z,101945.23
2018-11-23T09:53:05.126Z,101941.55
2018-11-23T09:58:08.454Z,101935.17
2018-11-23T10:03:11.723Z,101938.95
2018-11-23T10:08:15.094Z,101938.20
2018-11-23T10:13:18.505Z,101932.26
2018-11-23T10:18:22.367Z,101922.27
2018-11-23T10:23:26.057Z,101916.70
2018-11-23T10:28:29.501Z,101910.66
2018-11-23T10:33:32.948Z,101916.72
2018-11-23T10:38:36.198Z,101915.50
2018-11-23T10:43:39.527Z,101905.84
2018-11-23T10:48:43.058Z,101907.95
2018-11-23T10:53:48.448Z,101894.35
2018-11-23T10:58:51.749Z,101892.17
2018-11-23T11:03:54.883Z,101879.86
2018-11-23T11:08:58.355Z,101881.13
2018-11-23T11:14:01.715Z,101875.25
2018-11-23T11:19:06.127Z,101867.03
2018-11-23T11:24:09.751Z,101868.33
2018-11-23T11:29:13.065Z,101862.72
2018-11-23T11:34:19.153Z,101859.02
2018-11-23T11:39:22.410Z,101847.74
2018-11-23T11:44:25.797Z,101841.25
2018-11-23T11:49:30.199Z,101842.09
2018-11-23T11:54:33.874Z,101845.19
2018-11-23T11:59:37.066Z,101837.92
2018-11-23T12:04:40.846Z,101826.80
2018-11-23T12:09:43.990Z,101814.77
2018-11-23T12:14:47.361Z,101811.23
2018-11-23T12:19:50.595Z,101809.16
2018-11-23T12:24:53.765Z,101803.10
2018-11-23T12:29:57.788Z,101801.52
2018-11-23T12:35:01.052Z,101790.94
2018-11-23T12:40:05.520Z,101781.92
2018-11-23T12:45:10.107Z,101781.09
2018-11-23T12:50:14.705Z,101784.56
2018-11-23T12:55:17.924Z,101770.90
2018-11-23T13:00:21.043Z,101767.95
2018-11-23T13:05:24.296Z,101762.47
2018-11-23T13:10:27.532Z,101763.28
2018-11-23T13:15:30.795Z,101756.66
2018-11-23T13:20:34.173Z,101756.24
2018-11-23T13:25:37.467Z,101756.27
2018-11-23T13:30:40.590Z,101753.91
2018-11-23T13:35:44.046Z,101750.02
2018-11-23T13:40:47.261Z,101745.97
2018-11-23T13:45:50.504Z,101741.13
2018-11-23T13:50:53.679Z,101742.55
2018-11-23T13:55:56.906Z,101733.40
2018-11-23T14:01:00.649Z,101742.37
2018-11-23T14:06:03.945Z,101735.59
2018-11-23T14:11:08.095Z,101739.00
2018-11-23T14:16:11.865Z,101733.04
2018-11-23T14:21:15.328Z,101726.07
2018-11-23T14:26:19.163Z,101727.48
2018-11-23T14:31:22.465Z,101725.07
2018-11-23T14:36:25.609Z,101719.91
2018-11-23T14:41:29.351Z,101728.33
2018-11-23T14:46:32.888Z,101715.22
2018-11-23T14:51:36.372Z,101724.23
2018-11-23T14:56:39.646Z,101726.38
2018-11-23T15:01:43.690Z,101730.00
2018-11-23T15:06:48.370Z,101719.33
2018-11-23T15:11:51.667Z,101713.70
2018-11-23T15:16:55.187Z,101715.92
2018-11-23T15:21:58.669Z,101713.70
2018-11-23T15:27:02.403Z,101711.82
2018-11-23T15:32:06.168Z,101714.55
2018-11-23T15:37:09.473Z,101709.77
2018-11-23T15:42:12.907Z,101702.22
2018-11-23T15:47:16.132Z,101692.19
2018-11-23T15:52:19.501Z,101683.78
2018-11-23T15:57:24.551Z,101681.82
2018-11-23T16:02:27.864Z,101680.80
2018-11-23T16:07:31.564Z,101675.85
2018-11-23T16:12:35.006Z,101675.30
2018-11-23T16:17:38.305Z,101680.80
2018-11-23T16:22:42.593Z,101687.15
2018-11-23T16:27:45.945Z,101681.86
2018-11-23T16:32:49.188Z,101689.80
2018-11-23T16:37:52.475Z,101680.92
2018-11-23T16:42:55.674Z,101689.41
2018-11-23T16:47:59.965Z,101673.24
2018-11-23T16:53:04.197Z,101682.71
2018-11-23T16:58:07.534Z,101682.59
2018-11-23T17:03:11.293Z,101678.45
2018-11-23T17:08:14.594Z,101670.22
2018-11-23T17:13:17.855Z,101671.66
2018-11-23T17:18:21.062Z,101672.69
2018-11-23T17:23:24.393Z,101675.98
2018-11-23T17:28:27.652Z,101670.89
2018-11-23T17:33:30.957Z,101661.42
2018-11-23T17:38:37.682Z,101650.11
2018-11-23T17:43:37.420Z,101652.55
2018-11-23T17:48:40.760Z,101648.91
2018-11-23T17:53:44.560Z,101643.65
2018-11-23T17:58:48.345Z,101650.36
2018-11-23T18:03:51.753Z,101636.09
2018-11-23T18:08:55.137Z,101622.22
2018-11-23T18:14:13.483Z,101618.31
2018-11-23T18:19:18.838Z,101631.71
2018-11-23T18:24:22.942Z,101618.98
2018-11-23T18:29:26.838Z,101613.47
2018-11-23T18:34:30.981Z,101624.44
2018-11-23T18:39:36.115Z,101624.34
2018-11-23T18:44:42.744Z,101597.28
2018-11-23T18:49:48.580Z,101602.94
2018-11-23T18:54:56.373Z,101597.42
2018-11-23T19:00:01.910Z,101577.09
2018-11-23T19:05:12.771Z,101575.55
2018-11-23T19:10:18.608Z,101577.87
2018-11-23T19:15:25.443Z,101579.21
2018-11-23T19:20:30.567Z,101570.55
2018-11-23T19:25:36.805Z,101563.93
2018-11-23T19:30:43.222Z,101560.59
2018-11-23T19:35:49.433Z,101565.80
2018-11-23T19:40:55.223Z,101562.98
2018-11-23T19:46:02.722Z,101562.23
2018-11-23T19:51:08.695Z,101558.95
2018-11-23T19:56:15.095Z,101541.98
2018-11-23T20:01:20.874Z,101538.91
2018-11-23T20:06:27.193Z,101529.37
2018-11-23T20:11:33.833Z,101518.16
2018-11-23T20:16:39.682Z,101520.72
2018-11-23T20:21:42.844Z,101511.84
2018-11-23T20:26:46.566Z,101495.74
2018-11-23T20:31:49.930Z,101487.09
2018-11-23T20:36:54.970Z,101483.05
2018-11-23T20:42:01.509Z,101486.97
2018-11-23T20:47:08.350Z,101480.87
2018-11-23T20:52:14.982Z,101472.08
2018-11-23T20:57:21.363Z,101467.98
2018-11-23T21:02:27.774Z,101469.39
2018-11-23T21:07:34.888Z,101464.88
2018-11-23T21:12:41.499Z,101462.30
2018-11-23T21:17:44.938Z,101456.59
2018-11-23T21:22:57.457Z,101458.73
2018-11-23T21:28:01.053Z,101443.53
2018-11-23T21:33:04.398Z,101435.58
2018-11-23T21:38:12.312Z,101433.33
2018-11-23T21:43:19.074Z,101439.37
2018-11-23T21:48:24.701Z,101445.38
2018-11-23T21:53:30.702Z,101446.06
2018-11-23T21:58:36.037Z,101459.64
2018-11-23T22:03:42.254Z,101456.41
2018-11-23T22:08:46.644Z,101458.67
2018-11-23T22:13:53.398Z,101472.44
2018-11-23T22:18:56.836Z,101465.02
2018-11-23T22:24:01.726Z,101455.69
2018-11-23T22:29:03.947Z,101450.11
2018-11-23T22:34:07.278Z,101449.17
2018-11-23T22:39:10.488Z,101438.81
2018-11-23T22:44:13.676Z,101431.19
2018-11-23T22:49:16.842Z,101432.33
2018-11-23T22:54:20.057Z,101429.89
2018-11-23T22:59:23.287Z,101418.86
2018-11-23T23:04:26.927Z,101410.38
2018-11-23T23:09:30.244Z,101399.09
2018-11-23T23:14:33.523Z,101396.55
2018-11-23T23:19:36.801Z,101394.66
2018-11-23T23:24:40.117Z,101399.86
2018-11-23T23:29:43.272Z,101400.05
2018-11-23T23:34:46.499Z,101390.66
2018-11-23T23:39:49.844Z,101389.63
2018-11-23T23:44:53.080Z,101380.39
2018-11-23T23:49:56.215Z,101371.05
2018-11-23T23:54:59.604Z,101364.47
